Time;durP1;ratioP1;P1;durP2;ratioP2;P2;SDS_P1;SDS_P2;PMS_P1;PMS_P2;Temp;Humidity;BMP_temperature;BMP_pressure;BME280_temperature;BME280_humidity;BME280_pressure;Samples;Min_cycle;Max_cycle;Signal;HPM_P1;HPM_P2
2022/06/15 00:02:00;;;;;;;11.63;6.90;;;12.40;99.90;;;;;;5003957;28;20609;-74
2022/06/15 00:04:26;;;;;;;12.85;7.18;;;12.30;99.90;;;;;;4988190;28;20052;-75
2022/06/15 00:06:53;;;;;;;11.73;7.25;;;12.20;99.90;;;;;;4987678;28;20133;-75
2022/06/15 00:09:19;;;;;;;12.57;7.50;;;12.20;99.90;;;;;;4985819;28;20069;-75
2022/06/15 00:11:45;;;;;;;11.48;7.45;;;12.10;99.90;;;;;;4985125;28;20042;-75
2022/06/15 00:14:15;;;;;;;14.55;7.35;;;12.00;99.90;;;;;;4990521;28;20128;-76
2022/06/15 00:16:42;;;;;;;15.40;7.93;;;12.00;99.90;;;;;;4990333;28;20054;-75
2022/06/15 00:19:11;;;;;;;14.35;8.23;;;11.90;99.90;;;;;;5005843;28;20034;-74
2022/06/15 00:21:37;;;;;;;15.05;8.75;;;11.90;99.90;;;;;;5022394;28;20457;-75
2022/06/15 00:24:03;;;;;;;13.60;8.05;;;11.90;99.90;;;;;;5003220;28;20125;-75
2022/06/15 00:26:29;;;;;;;14.68;8.77;;;11.80;99.90;;;;;;4987872;28;20121;-75
2022/06/15 00:28:55;;;;;;;12.15;7.82;;;11.80;99.90;;;;;;4987565;28;20141;-75
2022/06/15 00:31:22;;;;;;;14.32;9.05;;;11.70;99.90;;;;;;4997981;28;20034;-75
2022/06/15 00:33:48;;;;;;;16.05;9.10;;;11.70;99.90;;;;;;5008251;28;20073;-75
2022/06/15 00:36:17;;;;;;;14.18;9.00;;;11.70;99.90;;;;;;4998672;28;20046;-75
2022/06/15 00:38:49;;;;;;;14.27;8.77;;;11.60;99.90;;;;;;5004757;28;20037;-75
2022/06/15 00:41:18;;;;;;;14.70;8.07;;;11.60;99.90;;;;;;5005273;28;20388;-74
2022/06/15 00:43:47;;;;;;;17.77;10.02;;;11.50;99.90;;;;;;5003521;28;20042;-75
2022/06/15 00:46:40;;;;;;;13.52;9.50;;;11.50;99.90;;;;;;4987548;28;20041;-74
2022/06/15 00:49:26;;;;;;;14.52;9.20;;;11.40;99.90;;;;;;5013961;28;20080;-75
2022/06/15 00:51:59;;;;;;;15.05;9.57;;;11.40;99.90;;;;;;4993605;28;20045;-75
2022/06/15 00:54:25;;;;;;;15.60;9.15;;;11.40;99.90;;;;;;5001537;28;20522;-75
2022/06/15 00:56:52;;;;;;;14.23;8.55;;;11.40;99.90;;;;;;4998211;28;20053;-74
2022/06/15 00:59:28;;;;;;;17.52;9.00;;;11.40;99.90;;;;;;5002894;28;20038;-73
2022/06/15 01:01:54;;;;;;;18.77;8.60;;;11.30;99.90;;;;;;5001465;28;20046;-74
2022/06/15 01:04:20;;;;;;;14.23;8.73;;;11.30;99.90;;;;;;5000697;28;20664;-74
2022/06/15 01:07:05;;;;;;;11.57;8.27;;;11.30;99.90;;;;;;4997979;28;20056;-75
2022/06/15 01:09:35;;;;;;;13.90;8.23;;;11.20;99.90;;;;;;4998967;28;20052;-74
2022/06/15 01:12:12;;;;;;;15.57;8.13;;;11.20;99.90;;;;;;5003385;28;20444;-75
2022/06/15 01:15:05;;;;;;;12.50;8.13;;;11.20;99.90;;;;;;5000056;28;20048;-74
2022/06/15 01:18:08;;;;;;;14.43;7.07;;;11.20;99.90;;;;;;4996006;28;20046;-74
2022/06/15 01:20:52;;;;;;;14.35;7.68;;;11.10;99.90;;;;;;4996191;28;20121;-75
2022/06/15 01:23:40;;;;;;;14.38;7.90;;;11.10;99.90;;;;;;4984838;28;20196;-74
2022/06/15 01:26:41;;;;;;;14.15;7.63;;;11.00;99.90;;;;;;5001753;28;20069;-75
2022/06/15 01:29:21;;;;;;;13.35;7.55;;;11.00;99.90;;;;;;4922669;29;20470;-75
2022/06/15 01:31:56;;;;;;;12.55;7.28;;;11.00;99.90;;;;;;4980457;28;20152;-74
2022/06/15 01:34:40;;;;;;;14.13;7.57;;;11.00;99.90;;;;;;4979655;28;20081;-74
2022/06/15 01:37:06;;;;;;;11.93;7.18;;;10.90;99.90;;;;;;4987612;28;20045;-75
2022/06/15 01:39:46;;;;;;;12.68;7.32;;;10.90;99.90;;;;;;4981100;28;20054;-74
2022/06/15 01:42:22;;;;;;;10.07;7.00;;;10.90;99.90;;;;;;4982525;28;20053;-74
2022/06/15 01:44:54;;;;;;;13.90;7.57;;;10.90;99.90;;;;;;5002011;28;20112;-75
2022/06/15 01:47:23;;;;;;;12.73;6.97;;;10.90;99.90;;;;;;4988670;28;20041;-74
2022/06/15 01:49:57;;;;;;;13.15;6.57;;;10.90;99.90;;;;;;4974982;28;20038;-74
2022/06/15 01:52:28;;;;;;;12.82;7.03;;;10.80;99.90;;;;;;4983592;28;20049;-74
2022/06/15 01:55:10;;;;;;;10.70;7.00;;;10.80;99.90;;;;;;4985284;28;20065;-74
2022/06/15 01:57:41;;;;;;;9.25;6.22;;;10.80;99.90;;;;;;5004244;28;20123;-74
2022/06/15 02:00:10;;;;;;;11.75;6.65;;;10.80;99.90;;;;;;5002180;28;20054;-74
2022/06/15 02:02:56;;;;;;;11.75;6.30;;;10.70;99.90;;;;;;4983655;28;20043;-75
2022/06/15 02:05:44;;;;;;;11.43;6.60;;;10.70;99.90;;;;;;4991343;28;20376;-74
2022/06/15 02:08:13;;;;;;;14.55;6.78;;;10.60;99.90;;;;;;4974083;28;20038;-74
2022/06/15 02:10:42;;;;;;;14.07;6.95;;;10.60;99.90;;;;;;4990575;28;20086;-75
2022/06/15 02:13:29;;;;;;;9.68;6.78;;;10.60;99.90;;;;;;4988298;28;20080;-73
2022/06/15 02:16:02;;;;;;;12.18;6.93;;;10.50;99.90;;;;;;4973993;28;20053;-74
2022/06/15 02:18:28;;;;;;;13.75;6.85;;;10.50;99.90;;;;;;5005837;28;20123;-74
2022/06/15 02:21:00;;;;;;;10.68;6.28;;;10.50;99.90;;;;;;5005990;28;20407;-74
2022/06/15 02:23:27;;;;;;;11.55;6.15;;;10.40;99.90;;;;;;5011264;28;20074;-73
2022/06/15 02:25:54;;;;;;;12.90;6.88;;;10.40;99.90;;;;;;5008787;28;20050;-74
2022/06/15 02:28:28;;;;;;;10.43;6.65;;;10.40;99.90;;;;;;5006932;28;20149;-74
2022/06/15 02:30:54;;;;;;;11.98;6.40;;;10.30;99.90;;;;;;5007988;28;20581;-74
2022/06/15 02:33:25;;;;;;;10.73;6.10;;;10.30;99.90;;;;;;5006624;28;20080;-74
2022/06/15 02:35:52;;;;;;;10.07;6.70;;;10.30;99.90;;;;;;5007901;28;20042;-74
2022/06/15 02:38:17;;;;;;;10.45;6.32;;;10.30;99.90;;;;;;4999046;28;20038;-74
2022/06/15 02:40:43;;;;;;;10.70;6.07;;;10.50;99.90;;;;;;4995558;28;20046;-74
2022/06/15 02:43:11;;;;;;;12.52;6.05;;;10.20;99.90;;;;;;5004905;28;20500;-74
2022/06/15 02:45:39;;;;;;;9.30;5.82;;;10.10;99.90;;;;;;5001593;28;20046;-75
2022/06/15 02:48:08;;;;;;;10.35;6.57;;;10.10;99.90;;;;;;5003308;28;20552;-75
2022/06/15 02:50:44;;;;;;;13.40;6.07;;;10.10;99.90;;;;;;5002869;28;20476;-75
2022/06/15 02:53:16;;;;;;;11.38;5.82;;;10.10;99.90;;;;;;5021546;28;20402;-74
2022/06/15 02:55:43;;;;;;;10.45;5.68;;;10.10;99.90;;;;;;5002491;28;20478;-75
2022/06/15 02:58:24;;;;;;;12.00;6.32;;;10.10;99.90;;;;;;5000691;28;20117;-74
2022/06/15 03:00:50;;;;;;;9.23;5.57;;;10.10;99.90;;;;;;5005733;28;20165;-74
2022/06/15 03:03:17;;;;;;;10.30;6.22;;;10.80;99.90;;;;;;5006430;28;20124;-74
2022/06/15 03:05:47;;;;;;;11.02;6.03;;;10.20;99.90;;;;;;4979573;28;20438;-75
2022/06/15 03:08:13;;;;;;;10.60;6.15;;;10.10;99.90;;;;;;5005250;28;20030;-75
2022/06/15 03:10:39;;;;;;;12.98;6.28;;;10.20;99.90;;;;;;4981907;28;20049;-75
2022/06/15 03:13:05;;;;;;;11.85;6.10;;;10.30;99.90;;;;;;5003169;28;20034;-75
2022/06/15 03:15:30;;;;;;;11.73;5.70;;;10.30;99.90;;;;;;5000678;28;20058;-75
2022/06/15 03:17:56;;;;;;;9.63;5.97;;;10.30;99.90;;;;;;4999011;28;20038;-75
2022/06/15 03:20:22;;;;;;;11.27;6.55;;;10.40;99.90;;;;;;5002722;28;20430;-74
2022/06/15 03:22:49;;;;;;;8.80;6.07;;;10.30;99.90;;;;;;4973412;28;20045;-74
2022/06/15 03:25:14;;;;;;;9.68;6.05;;;10.50;99.90;;;;;;4987113;28;20407;-75
2022/06/15 03:27:40;;;;;;;10.95;6.00;;;10.40;99.90;;;;;;4991271;28;20050;-74
2022/06/15 03:30:10;;;;;;;10.60;6.15;;;10.50;99.90;;;;;;5005122;28;20045;-75
2022/06/15 03:32:35;;;;;;;11.93;6.38;;;10.60;99.90;;;;;;4983305;28;20049;-75
2022/06/15 03:35:02;;;;;;;11.25;6.57;;;10.60;99.90;;;;;;5006161;28;20111;-74
2022/06/15 03:37:28;;;;;;;10.68;6.22;;;10.70;99.90;;;;;;5007353;28;20247;-74
2022/06/15 03:39:54;;;;;;;10.32;6.95;;;10.80;99.90;;;;;;4986584;28;20595;-75
2022/06/15 03:42:25;;;;;;;10.65;6.70;;;11.00;99.90;;;;;;4972150;28;20429;-74
2022/06/15 03:44:53;;;;;;;11.98;6.93;;;10.90;99.90;;;;;;4989537;28;20049;-74
2022/06/15 03:47:20;;;;;;;12.43;6.03;;;10.90;99.90;;;;;;5002162;28;20499;-75
2022/06/15 03:49:51;;;;;;;11.13;6.82;;;11.10;99.90;;;;;;4973803;28;20466;-75
2022/06/15 03:52:23;;;;;;;10.23;6.80;;;11.10;99.90;;;;;;4986864;28;20042;-75
2022/06/15 03:54:49;;;;;;;11.85;6.63;;;11.10;99.90;;;;;;4988806;28;20046;-75
2022/06/15 03:57:18;;;;;;;12.43;7.07;;;11.20;99.90;;;;;;4986672;28;20041;-74
2022/06/15 03:59:44;;;;;;;11.45;7.22;;;11.20;99.90;;;;;;4974179;28;20529;-75
2022/06/15 04:02:10;;;;;;;12.35;7.20;;;11.30;99.90;;;;;;4966238;28;20053;-74
2022/06/15 04:04:37;;;;;;;12.85;7.10;;;11.40;99.90;;;;;;4975305;28;20046;-73
2022/06/15 04:07:04;;;;;;;13.27;7.05;;;11.40;99.90;;;;;;4990084;28;20038;-74
2022/06/15 04:09:31;;;;;;;14.40;7.43;;;11.50;99.90;;;;;;4972091;28;20065;-74
2022/06/15 04:12:08;;;;;;;12.88;6.80;;;11.50;99.90;;;;;;4968159;28;20111;-74
2022/06/15 04:14:35;;;;;;;12.70;6.38;;;11.60;99.90;;;;;;4994698;28;20562;-74
2022/06/15 04:17:04;;;;;;;19.55;7.32;;;11.70;99.90;;;;;;4991515;28;20119;-74
2022/06/15 04:19:35;;;;;;;12.85;7.18;;;11.80;99.90;;;;;;4999465;28;20342;-74
2022/06/15 04:22:01;;;;;;;;;;;11.90;99.90;;;;;;5003390;28;20746;-74
2022/06/15 04:24:30;;;;;;;12.85;7.43;;;11.90;99.90;;;;;;4986798;28;20004;-74
2022/06/15 04:26:57;;;;;;;13.95;7.25;;;12.00;99.90;;;;;;5002876;28;20050;-75
2022/06/15 04:29:24;;;;;;;14.93;7.10;;;12.10;99.90;;;;;;5003806;28;20044;-74
2022/06/15 04:31:50;;;;;;;14.30;6.90;;;12.20;99.90;;;;;;5000520;28;20125;-74
2022/06/15 04:34:16;;;;;;;11.38;6.25;;;12.20;99.90;;;;;;5002641;28;20040;-75
2022/06/15 04:36:44;;;;;;;15.02;6.97;;;12.20;99.90;;;;;;5002496;28;20542;-75
2022/06/15 04:39:11;;;;;;;13.52;6.78;;;12.30;99.90;;;;;;5003633;28;20073;-74
2022/06/15 04:41:39;;;;;;;13.30;7.15;;;12.40;99.90;;;;;;5003376;28;20806;-75
2022/06/15 04:44:06;;;;;;;11.82;7.28;;;12.40;99.90;;;;;;5019781;28;20120;-74
2022/06/15 04:46:32;;;;;;;12.93;6.65;;;12.50;99.90;;;;;;5000390;28;20454;-74
2022/06/15 04:48:58;;;;;;;12.10;6.65;;;12.60;99.90;;;;;;5002542;28;20545;-74
2022/06/15 04:51:26;;;;;;;11.13;6.65;;;12.70;99.90;;;;;;5018584;28;20041;-74
2022/06/15 04:53:53;;;;;;;12.90;7.00;;;12.90;99.90;;;;;;5018439;28;20053;-74
2022/06/15 04:56:20;;;;;;;13.13;7.70;;;13.00;99.90;;;;;;5001945;28;20044;-74
2022/06/15 04:58:47;;;;;;;12.90;7.07;;;13.10;99.90;;;;;;5014129;28;20069;-74
2022/06/15 05:01:14;;;;;;;12.80;6.78;;;13.80;99.90;;;;;;5000740;28;20085;-75
2022/06/15 05:03:40;;;;;;;11.65;6.68;;;14.10;99.90;;;;;;4985907;28;20458;-75
2022/06/15 05:06:21;;;;;;;17.73;7.38;;;14.20;99.90;;;;;;4984001;28;20064;-74
2022/06/15 05:08:47;;;;;;;15.32;6.97;;;14.20;99.90;;;;;;5002076;28;20073;-75
2022/06/15 05:11:13;;;;;;;12.95;6.97;;;14.20;99.90;;;;;;5001889;28;20135;-75
2022/06/15 05:13:38;;;;;;;13.75;7.20;;;14.20;99.90;;;;;;5000841;28;20073;-75
2022/06/15 05:16:04;;;;;;;12.57;6.53;;;14.20;99.90;;;;;;4993013;28;20056;-75
2022/06/15 05:18:30;;;;;;;13.48;6.90;;;14.20;99.90;;;;;;5003028;28;20053;-75
2022/06/15 05:20:57;;;;;;;12.77;7.32;;;14.30;99.90;;;;;;4999550;28;20083;-75
2022/06/15 05:23:23;;;;;;;11.10;6.60;;;14.50;99.90;;;;;;5015977;28;20045;-75
2022/06/15 05:25:49;;;;;;;12.60;6.00;;;15.30;99.90;;;;;;5000155;28;20088;-75
2022/06/15 05:28:15;;;;;;;12.40;5.85;;;16.40;99.90;;;;;;4985406;28;20049;-75
2022/06/15 05:30:40;;;;;;;10.73;5.10;;;18.10;99.90;;;;;;5001928;28;20043;-75
2022/06/15 05:33:06;;;;;;;11.68;5.18;;;18.80;99.90;;;;;;5002283;28;20084;-76
2022/06/15 05:35:32;;;;;;;7.90;4.20;;;18.50;99.90;;;;;;4984172;28;20049;-75
2022/06/15 05:37:58;;;;;;;10.50;5.22;;;18.10;99.90;;;;;;4999840;28;20057;-75
2022/06/15 05:40:23;;;;;;;11.90;5.20;;;17.70;99.90;;;;;;5001185;28;20169;-75
2022/06/15 05:42:49;;;;;;;12.90;4.90;;;17.40;99.90;;;;;;4981319;28;20045;-75
2022/06/15 05:45:15;;;;;;;14.32;4.88;;;17.20;99.90;;;;;;5000277;28;20507;-75
2022/06/15 05:47:41;;;;;;;9.35;4.72;;;17.00;99.90;;;;;;4996282;28;20053;-75
2022/06/15 05:50:08;;;;;;;9.00;4.35;;;16.90;99.90;;;;;;4978655;28;20380;-74
2022/06/15 05:52:34;;;;;;;10.52;5.18;;;16.90;99.90;;;;;;5001947;28;20546;-75
2022/06/15 05:55:01;;;;;;;11.77;5.53;;;16.80;99.90;;;;;;4999920;28;20468;-74
2022/06/15 05:57:28;;;;;;;11.30;5.82;;;16.70;99.90;;;;;;4985194;28;20570;-74
2022/06/15 05:59:56;;;;;;;10.25;5.72;;;18.30;99.90;;;;;;5002039;28;20038;-74
2022/06/15 06:02:24;;;;;;;11.98;4.85;;;19.90;99.90;;;;;;4982682;28;20056;-74
2022/06/15 06:04:50;;;;;;;9.38;5.18;;;21.50;99.90;;;;;;5000654;28;20104;-72
2022/06/15 06:07:17;;;;;;;10.13;4.53;;;22.70;99.90;;;;;;4982245;28;20042;-72
2022/06/15 06:09:42;;;;;;;11.68;5.07;;;23.60;99.90;;;;;;4997266;28;20120;-72
2022/06/15 06:12:09;;;;;;;10.63;5.38;;;24.20;99.90;;;;;;4999633;28;20148;-73
2022/06/15 06:14:37;;;;;;;9.45;4.60;;;24.20;99.90;;;;;;4997378;28;20046;-72
2022/06/15 06:17:04;;;;;;;9.80;4.38;;;24.80;99.90;;;;;;4979844;28;20438;-73
2022/06/15 06:19:30;;;;;;;10.60;4.30;;;25.30;99.90;;;;;;4997086;28;20419;-72
2022/06/15 06:21:56;;;;;;;9.52;4.85;;;25.50;99.90;;;;;;5000039;28;20042;-73
2022/06/15 06:24:22;;;;;;;10.13;4.20;;;24.40;99.90;;;;;;4998354;28;20046;-73
2022/06/15 06:26:47;;;;;;;11.82;4.32;;;22.90;99.90;;;;;;4997612;28;20096;-73
2022/06/15 06:29:16;;;;;;;10.27;4.03;;;21.70;99.90;;;;;;4997562;28;20050;-73
2022/06/15 06:31:43;;;;;;;9.68;3.85;;;20.80;99.90;;;;;;4997086;28;20057;-72
2022/06/15 06:34:10;;;;;;;9.68;3.60;;;20.10;99.90;;;;;;4983810;28;20046;-73
2022/06/15 06:36:45;;;;;;;12.10;3.97;;;19.50;99.90;;;;;;5000723;28;20650;-73
2022/06/15 06:39:17;;;;;;;9.80;3.53;;;19.20;99.90;;;;;;4996371;28;20183;-73
2022/06/15 06:41:43;;;;;;;12.52;3.97;;;19.00;99.90;;;;;;5000213;28;20495;-73
2022/06/15 06:44:11;;;;;;;10.82;3.75;;;19.00;99.90;;;;;;4999771;28;20108;-73
2022/06/15 06:46:37;;;;;;;12.25;4.43;;;19.00;99.90;;;;;;4994620;28;20053;-73
2022/06/15 06:49:07;;;;;;;8.30;3.17;;;18.90;99.90;;;;;;4998194;28;20053;-74
2022/06/15 06:51:35;;;;;;;8.80;3.08;;;18.80;99.90;;;;;;4980341;28;20045;-74
2022/06/15 06:54:02;;;;;;;9.63;4.40;;;18.80;99.90;;;;;;5002617;28;20042;-73
2022/06/15 06:56:28;;;;;;;7.78;3.40;;;18.70;99.90;;;;;;5003011;28;20058;-73
2022/06/15 06:58:54;;;;;;;8.02;3.15;;;18.60;99.90;;;;;;5004005;28;20056;-73
2022/06/15 07:01:20;;;;;;;8.63;3.40;;;18.60;99.90;;;;;;5001756;28;20045;-72
2022/06/15 07:03:47;;;;;;;9.32;4.05;;;18.60;99.90;;;;;;4999978;28;20042;-73
2022/06/15 07:06:13;;;;;;;8.90;4.30;;;18.50;99.90;;;;;;4997955;28;21307;-73
2022/06/15 07:08:39;;;;;;;9.15;4.20;;;18.50;99.90;;;;;;4999934;28;20038;-73
2022/06/15 07:11:13;;;;;;;11.18;5.15;;;18.40;99.90;;;;;;5003885;28;20045;-74
2022/06/15 07:13:39;;;;;;;11.23;4.25;;;18.40;99.90;;;;;;4986340;28;20701;-73
2022/06/15 07:16:07;;;;;;;8.52;4.63;;;18.30;99.90;;;;;;5002887;28;20058;-73
2022/06/15 07:18:34;;;;;;;8.88;3.70;;;18.30;99.90;;;;;;4985750;28;20094;-74
2022/06/15 07:21:04;;;;;;;9.52;4.20;;;18.30;99.90;;;;;;4985384;28;20088;-74
2022/06/15 07:23:31;;;;;;;10.57;4.32;;;18.40;99.90;;;;;;4971583;28;20414;-74
2022/06/15 07:25:57;;;;;;;9.60;4.22;;;18.50;99.90;;;;;;4985377;28;20061;-73
2022/06/15 07:28:23;;;;;;;9.98;4.13;;;18.40;99.90;;;;;;4982073;28;20034;-73
2022/06/15 07:30:48;;;;;;;10.57;4.00;;;18.70;99.90;;;;;;4989025;28;20069;-72
2022/06/15 07:33:15;;;;;;;8.77;3.95;;;19.10;99.90;;;;;;5004155;28;20073;-75
2022/06/15 07:35:41;;;;;;;9.02;4.10;;;19.30;99.90;;;;;;5003995;28;20041;-74
2022/06/15 07:38:07;;;;;;;10.88;4.22;;;19.50;99.90;;;;;;4999934;28;20104;-73
2022/06/15 07:40:34;;;;;;;8.95;3.60;;;19.70;99.90;;;;;;4984565;28;20432;-74
2022/06/15 07:43:00;;;;;;;8.52;4.00;;;19.70;99.90;;;;;;4979228;28;20468;-73
2022/06/15 07:45:26;;;;;;;8.18;4.10;;;19.70;99.90;;;;;;4985656;28;20137;-73
2022/06/15 07:50:41;;;;;;;8.77;3.85;;;20.00;99.90;;;;;;4981167;28;20423;-73
2022/06/15 07:53:09;;;;;;;9.52;3.45;;;20.00;99.90;;;;;;4985618;28;20046;-72
2022/06/15 07:55:39;;;;;;;9.52;3.47;;;19.90;99.90;;;;;;5002854;28;20050;-71
2022/06/15 07:58:05;;;;;;;12.68;3.63;;;19.90;99.90;;;;;;4985012;28;20887;-72
2022/06/15 08:00:33;;;;;;;9.02;2.75;;;19.70;99.90;;;;;;4985652;28;20397;-73
2022/06/15 08:03:01;;;;;;;7.25;2.42;;;19.70;99.90;;;;;;4966551;28;20072;-73
2022/06/15 08:05:29;;;;;;;7.85;2.50;;;19.70;99.90;;;;;;4985204;28;20128;-74
2022/06/15 08:07:55;;;;;;;9.57;3.00;;;20.00;99.90;;;;;;4985544;28;20061;-75
2022/06/15 08:10:24;;;;;;;8.27;2.45;;;20.20;99.90;;;;;;4986496;28;20058;-75
2022/06/15 08:12:50;;;;;;;7.05;1.98;;;20.40;99.90;;;;;;4989352;28;20076;-72
2022/06/15 08:15:17;;;;;;;8.63;2.50;;;20.90;99.90;;;;;;4988334;28;20116;-73
2022/06/15 08:17:57;;;;;;;5.70;2.15;;;21.20;99.90;;;;;;4964956;28;20058;-73
2022/06/15 08:20:35;;;;;;;6.40;2.33;;;21.50;99.90;;;;;;5001186;28;20193;-74
2022/06/15 08:23:05;;;;;;;9.32;2.80;;;21.60;99.90;;;;;;5002721;28;20060;-73
2022/06/15 08:25:45;;;;;;;8.95;2.30;;;21.50;99.90;;;;;;4986090;28;20073;-72
2022/06/15 08:28:15;;;;;;;8.13;2.88;;;21.70;99.90;;;;;;4985484;28;20061;-73
2022/06/15 08:30:41;;;;;;;7.57;2.45;;;21.90;99.90;;;;;;4986072;28;20100;-75
2022/06/15 08:33:09;;;;;;;8.63;2.50;;;22.00;99.90;;;;;;4986233;28;20054;-72
2022/06/15 08:35:36;;;;;;;7.93;2.15;;;22.10;99.90;;;;;;4985300;28;20057;-73
2022/06/15 08:38:04;;;;;;;6.75;2.20;;;22.40;99.90;;;;;;4984917;28;20518;-73
2022/06/15 08:40:40;;;;;;;6.90;2.17;;;22.70;99.90;;;;;;4985456;28;20045;-74
2022/06/15 08:43:16;;;;;;;8.13;1.95;;;23.10;99.90;;;;;;4983961;28;20054;-73
2022/06/15 08:45:48;;;;;;;4.88;1.80;;;23.30;99.90;;;;;;4983336;28;20058;-73
2022/06/15 08:48:38;;;;;;;9.88;2.95;;;23.60;99.90;;;;;;4998647;28;20042;-73
2022/06/15 08:51:16;;;;;;;7.90;2.08;;;23.60;97.90;;;;;;4991451;28;20123;-74
2022/06/15 08:54:00;;;;;;;7.03;2.78;;;23.50;99.90;;;;;;4984941;28;20497;-74
2022/06/15 08:56:50;;;;;;;7.38;2.75;;;23.80;99.90;;;;;;4990525;28;20625;-74
2022/06/15 08:59:33;;;;;;;9.32;2.67;;;23.80;99.10;;;;;;5002745;28;20041;-74
2022/06/15 09:02:25;;;;;;;7.32;2.80;;;23.50;99.20;;;;;;4999417;28;20318;-74
2022/06/15 09:05:11;;;;;;;8.02;2.17;;;23.30;99.40;;;;;;4999384;28;20125;-73
2022/06/15 09:07:58;;;;;;;7.47;2.45;;;23.20;99.90;;;;;;4969514;28;20442;-72
2022/06/15 09:10:35;;;;;;;8.57;2.67;;;22.80;99.90;;;;;;4986559;28;20184;-74
2022/06/15 09:13:39;;;;;;;10.05;2.58;;;22.30;99.90;;;;;;4985813;28;20038;-74
2022/06/15 09:16:26;;;;;;;6.97;2.40;;;22.30;99.90;;;;;;5002465;28;21162;-73
2022/06/15 09:19:02;;;;;;;8.07;2.90;;;22.60;99.90;;;;;;5001026;28;20061;-75
2022/06/15 09:21:30;;;;;;;7.93;2.85;;;22.90;99.90;;;;;;4978642;28;20056;-75
2022/06/15 09:24:35;;;;;;;6.47;2.47;;;23.10;99.90;;;;;;4967939;28;20502;-74
2022/06/15 09:27:06;;;;;;;8.13;2.75;;;23.40;99.90;;;;;;5000090;28;20507;-74
2022/06/15 09:29:45;;;;;;;9.75;2.35;;;23.60;99.30;;;;;;4997846;28;20050;-74
2022/06/15 09:32:21;;;;;;;8.85;2.50;;;23.90;99.90;;;;;;5001727;28;20037;-74
2022/06/15 09:35:09;;;;;;;7.82;2.50;;;24.10;99.90;;;;;;4987634;28;20041;-73
2022/06/15 09:37:39;;;;;;;6.03;2.55;;;23.60;99.90;;;;;;4982818;28;20046;-74
2022/06/15 09:40:06;;;;;;;8.23;2.60;;;23.10;99.90;;;;;;4984323;28;20406;-72
2022/06/15 09:42:32;;;;;;;8.40;2.25;;;22.60;99.90;;;;;;5001767;28;20060;-72
2022/06/15 09:45:03;;;;;;;8.23;2.50;;;22.20;99.90;;;;;;4980349;28;20058;-73
2022/06/15 09:47:43;;;;;;;9.32;2.80;;;22.10;99.90;;;;;;5001629;28;20050;-73
2022/06/15 09:50:21;;;;;;;6.90;2.42;;;22.20;99.90;;;;;;4980758;28;20398;-74
2022/06/15 09:53:11;;;;;;;7.68;2.47;;;22.00;99.90;;;;;;4978261;28;20088;-74
2022/06/15 09:55:43;;;;;;;9.77;2.50;;;21.60;99.90;;;;;;5000208;28;20544;-74
2022/06/15 09:58:14;;;;;;;7.00;2.40;;;21.30;99.90;;;;;;4999898;28;20049;-74
2022/06/15 10:00:40;;;;;;;8.10;2.30;;;21.00;99.90;;;;;;4968499;28;20042;-74
2022/06/15 10:03:19;;;;;;;6.78;2.67;;;20.70;99.90;;;;;;4981099;28;20042;-73
2022/06/15 10:05:47;;;;;;;8.00;2.70;;;20.60;99.90;;;;;;4981871;28;20060;-72
2022/06/15 10:08:15;;;;;;;8.25;2.65;;;21.00;99.90;;;;;;4984315;28;20541;-74
2022/06/15 10:10:51;;;;;;;8.38;3.10;;;21.60;99.90;;;;;;4999759;28;20580;-74
2022/06/15 10:13:17;;;;;;;7.80;2.58;;;22.10;99.90;;;;;;4983343;28;20056;-72
2022/06/15 10:15:42;;;;;;;7.43;2.58;;;22.60;99.90;;;;;;4981653;28;20490;-73
2022/06/15 10:18:30;;;;;;;8.48;3.00;;;22.90;99.90;;;;;;4994929;28;20060;-73
2022/06/15 10:21:03;;;;;;;7.57;2.60;;;23.10;99.90;;;;;;4995763;28;20073;-73
2022/06/15 10:23:38;;;;;;;9.27;3.17;;;23.30;99.90;;;;;;4996633;28;20041;-74
2022/06/15 10:26:04;;;;;;;7.90;2.85;;;23.20;99.00;;;;;;4999248;28;20041;-74
2022/06/15 10:28:37;;;;;;;6.35;2.47;;;23.20;99.90;;;;;;5004524;28;20077;-74
2022/06/15 10:31:07;;;;;;;7.45;2.33;;;23.20;99.90;;;;;;4986793;28;20049;-73
2022/06/15 10:33:49;;;;;;;7.82;2.60;;;23.40;99.90;;;;;;4987133;28;20123;-73
2022/06/15 10:36:33;;;;;;;6.38;2.30;;;23.50;99.90;;;;;;5002623;28;20045;-73
2022/06/15 10:39:06;;;;;;;8.68;2.60;;;23.50;98.20;;;;;;5001797;28;20516;-75
2022/06/15 10:41:48;;;;;;;7.68;2.30;;;23.50;97.20;;;;;;5005983;28;20050;-74
2022/06/15 10:44:34;;;;;;;7.38;2.40;;;23.60;99.70;;;;;;5001123;28;21237;-74
2022/06/15 10:47:06;;;;;;;5.78;2.42;;;24.00;98.50;;;;;;4995684;28;20096;-75
2022/06/15 10:49:41;;;;;;;8.30;2.80;;;24.00;95.20;;;;;;5004201;28;20068;-75
2022/06/15 10:52:34;;;;;;;6.93;2.85;;;23.80;95.80;;;;;;4986111;28;20419;-74
2022/06/15 11:02:08;;;;;;;7.40;2.95;;;23.60;96.80;;;;;;4997989;28;20463;-75
2022/06/15 11:04:48;;;;;;;7.45;2.38;;;23.80;96.30;;;;;;4997859;28;20073;-74
2022/06/15 11:07:22;;;;;;;7.38;2.58;;;23.80;96.60;;;;;;4997867;28;20073;-74
2022/06/15 11:09:54;;;;;;;8.05;2.00;;;23.70;94.70;;;;;;4981581;28;20054;-75
2022/06/15 11:12:30;;;;;;;8.68;2.85;;;23.70;95.60;;;;;;5001628;28;20060;-74
2022/06/15 11:14:58;;;;;;;8.48;1.92;;;23.70;95.00;;;;;;4998198;28;20054;-73
2022/06/15 11:20:38;;;;;;;7.60;2.42;;;23.80;96.10;;;;;;4982964;28;20549;-71
2022/06/15 11:23:35;;;;;;;8.20;2.30;;;24.20;94.40;;;;;;4985758;28;20053;-72
2022/06/15 11:29:36;;;;;;;7.60;2.85;;;24.10;91.50;;;;;;4985640;28;20054;-74
2022/06/15 11:32:14;;;;;;;7.03;2.70;;;24.20;92.50;;;;;;4983769;28;20057;-73
2022/06/15 11:34:52;;;;;;;8.98;3.00;;;24.40;91.60;;;;;;4982023;28;20435;-74
2022/06/15 11:37:24;;;;;;;7.07;2.47;;;24.40;91.10;;;;;;4969014;28;20057;-72
2022/06/15 11:39:59;;;;;;;5.00;2.28;;;24.60;92.10;;;;;;5000452;28;20187;-73
2022/06/15 11:42:25;;;;;;;9.80;3.72;;;24.80;93.40;;;;;;4983982;28;20038;-74
2022/06/15 11:44:51;;;;;;;8.15;3.40;;;24.80;89.30;;;;;;4969282;28;20565;-73
2022/06/15 11:47:34;;;;;;;8.60;3.15;;;24.70;89.70;;;;;;4998586;28;20590;-73
2022/06/15 11:50:12;;;;;;;7.68;2.80;;;24.50;90.00;;;;;;4982980;28;20057;-73
2022/06/15 11:52:58;;;;;;;9.02;2.67;;;24.40;90.00;;;;;;4984316;28;20414;-74
2022/06/15 11:55:50;;;;;;;6.40;2.75;;;24.30;90.50;;;;;;4983475;28;20042;-73
2022/06/15 11:58:37;;;;;;;7.53;3.20;;;23.90;90.60;;;;;;5000863;28;20038;-72
2022/06/15 12:01:25;;;;;;;10.27;3.58;;;23.50;91.40;;;;;;4999369;28;20758;-75
2022/06/15 12:04:45;;;;;;;9.68;3.25;;;23.10;92.00;;;;;;5002118;28;20042;-74
2022/06/15 12:07:13;;;;;;;7.55;2.90;;;22.80;92.00;;;;;;4978611;28;20046;-74
2022/06/15 12:09:58;;;;;;;8.10;3.50;;;22.40;93.40;;;;;;4997676;28;20045;-73
2022/06/15 12:12:40;;;;;;;10.88;3.85;;;22.10;93.20;;;;;;4982749;28;20042;-72
2022/06/15 12:15:28;;;;;;;8.52;3.30;;;21.80;94.10;;;;;;4981964;28;20130;-72
2022/06/15 12:18:12;;;;;;;9.43;3.90;;;21.40;94.90;;;;;;4962849;28;20050;-73
2022/06/15 12:20:59;;;;;;;9.02;3.78;;;21.30;96.90;;;;;;4948202;28;20038;-73
2022/06/15 12:24:02;;;;;;;9.32;3.63;;;21.20;97.30;;;;;;4982018;28;20042;-73
2022/06/15 12:26:51;;;;;;;10.25;3.53;;;21.20;97.30;;;;;;4980866;28;20049;-71
2022/06/15 12:29:50;;;;;;;10.27;3.50;;;21.10;97.40;;;;;;4962953;28;20186;-70
2022/06/15 12:32:34;;;;;;;7.47;3.63;;;21.10;98.90;;;;;;4964550;28;20510;-69
2022/06/15 12:35:04;;;;;;;8.70;3.53;;;21.30;97.70;;;;;;4980112;28;20482;-70
2022/06/15 12:38:02;;;;;;;7.93;3.25;;;21.80;97.40;;;;;;4978887;28;20070;-70
2022/06/15 12:40:33;;;;;;;8.15;3.38;;;22.00;95.80;;;;;;4980218;28;20053;-70
2022/06/15 12:43:14;;;;;;;7.53;3.33;;;21.90;96.40;;;;;;4961850;28;20051;-73
2022/06/15 12:45:57;;;;;;;8.70;3.38;;;21.80;95.30;;;;;;4981622;28;20046;-72
2022/06/15 12:48:38;;;;;;;9.05;3.20;;;21.80;95.50;;;;;;4980998;28;20049;-72
2022/06/15 12:51:19;;;;;;;7.18;3.05;;;22.00;96.20;;;;;;4965456;28;20053;-71
2022/06/15 12:54:07;;;;;;;7.60;3.58;;;22.40;96.10;;;;;;4965310;28;20531;-73
2022/06/15 12:56:45;;;;;;;8.23;2.97;;;22.60;94.60;;;;;;4967344;28;20507;-70
2022/06/15 12:59:36;;;;;;;6.70;3.38;;;22.40;92.80;;;;;;4966242;28;20100;-71
2022/06/15 13:02:24;;;;;;;8.63;3.47;;;22.30;92.30;;;;;;4966924;28;20142;-72
2022/06/15 13:05:07;;;;;;;8.27;3.53;;;22.40;93.40;;;;;;4976838;28;20050;-73
2022/06/15 13:07:36;;;;;;;9.30;3.78;;;22.20;92.70;;;;;;4949060;28;20527;-73
2022/06/15 13:10:08;;;;;;;7.68;3.53;;;21.90;92.30;;;;;;4958403;28;20050;-73
2022/06/15 13:12:48;;;;;;;8.18;2.65;;;21.70;94.30;;;;;;4961986;28;20363;-72
2022/06/15 13:15:26;;;;;;;9.27;3.10;;;21.80;95.10;;;;;;4943183;28;20050;-73
2022/06/15 13:18:09;;;;;;;6.78;2.72;;;22.00;94.40;;;;;;4977312;28;20064;-73
2022/06/15 13:21:02;;;;;;;7.07;2.67;;;22.10;93.10;;;;;;4998604;28;20049;-73
2022/06/15 13:23:35;;;;;;;12.02;3.45;;;22.30;93.60;;;;;;4992652;28;20069;-72
2022/06/15 13:26:08;;;;;;;6.95;3.30;;;22.40;92.60;;;;;;4982914;28;20510;-73
2022/06/15 13:28:46;;;;;;;10.48;3.53;;;22.40;91.00;;;;;;5002550;28;20486;-73